sensor_id;sensor_type;location;lat;lon;timestamp;pressure;altitude;pressure_sealevel;temperature
49593;BMP280;35499;51.482;4.264;2023-12-07T00:02:08;101878.72;;;2.34
49593;BMP280;35499;51.482;4.264;2023-12-07T00:04:33;101872.66;;;2.31
49593;BMP280;35499;51.482;4.264;2023-12-07T00:06:58;101869.22;;;2.29
49593;BMP280;35499;51.482;4.264;2023-12-07T00:09:23;101865.69;;;2.25
49593;BMP280;35499;51.482;4.264;2023-12-07T00:11:49;101863.13;;;2.24
49593;BMP280;35499;51.482;4.264;2023-12-07T00:14:14;101863.00;;;2.21
49593;BMP280;35499;51.482;4.264;2023-12-07T00:16:39;101860.41;;;2.19
49593;BMP280;35499;51.482;4.264;2023-12-07T00:19:05;101861.13;;;2.15
49593;BMP280;35499;51.482;4.264;2023-12-07T00:21:30;101862.72;;;2.12
49593;BMP280;35499;51.482;4.264;2023-12-07T00:23:55;101863.41;;;2.08
49593;BMP280;35499;51.482;4.264;2023-12-07T00:26:20;101881.09;;;2.07
49593;BMP280;35499;51.482;4.264;2023-12-07T00:28:46;101874.34;;;2.07
49593;BMP280;35499;51.482;4.264;2023-12-07T00:31:11;101870.03;;;2.05
49593;BMP280;35499;51.482;4.264;2023-12-07T00:33:36;101859.84;;;2.03
49593;BMP280;35499;51.482;4.264;2023-12-07T00:36:02;101854.03;;;2.06
49593;BMP280;35499;51.482;4.264;2023-12-07T00:38:28;101850.63;;;2.05
49593;BMP280;35499;51.482;4.264;2023-12-07T00:40:54;101849.75;;;2.05
49593;BMP280;35499;51.482;4.264;2023-12-07T00:43:19;101845.47;;;2.02
49593;BMP280;35499;51.482;4.264;2023-12-07T00:45:44;101852.19;;;2.02
49593;BMP280;35499;51.482;4.264;2023-12-07T00:48:10;101855.53;;;2.01
49593;BMP280;35499;51.482;4.264;2023-12-07T00:50:35;101851.25;;;1.98
49593;BMP280;35499;51.482;4.264;2023-12-07T00:53:00;101844.44;;;1.97
49593;BMP280;35499;51.482;4.264;2023-12-07T00:55:26;101846.16;;;1.98
49593;BMP280;35499;51.482;4.264;2023-12-07T00:57:52;101857.19;;;2.00
49593;BMP280;35499;51.482;4.264;2023-12-07T01:00:17;101853.81;;;2.00
49593;BMP280;35499;51.482;4.264;2023-12-07T01:02:42;101846.91;;;1.96
49593;BMP280;35499;51.482;4.264;2023-12-07T01:05:07;101862.00;;;1.93
49593;BMP280;35499;51.482;4.264;2023-12-07T01:07:33;101860.19;;;1.89
49593;BMP280;35499;51.482;4.264;2023-12-07T01:09:59;101864.25;;;1.86
49593;BMP280;35499;51.482;4.264;2023-12-07T01:12:24;101870.09;;;1.83
49593;BMP280;35499;51.482;4.264;2023-12-07T01:14:49;101869.94;;;1.79
49593;BMP280;35499;51.482;4.264;2023-12-07T01:17:14;101872.47;;;1.79
49593;BMP280;35499;51.482;4.264;2023-12-07T01:19:40;101870.72;;;1.78
49593;BMP280;35499;51.482;4.264;2023-12-07T01:22:05;101873.34;;;1.81
49593;BMP280;35499;51.482;4.264;2023-12-07T01:24:30;101864.00;;;1.78
49593;BMP280;35499;51.482;4.264;2023-12-07T01:26:56;101863.06;;;1.77
49593;BMP280;35499;51.482;4.264;2023-12-07T01:29:21;101867.16;;;1.73
49593;BMP280;35499;51.482;4.264;2023-12-07T01:31:46;101860.31;;;1.71
49593;BMP280;35499;51.482;4.264;2023-12-07T01:34:11;101857.69;;;1.68
49593;BMP280;35499;51.482;4.264;2023-12-07T01:36:37;101853.34;;;1.65
49593;BMP280;35499;51.482;4.264;2023-12-07T01:39:02;101853.25;;;1.62
49593;BMP280;35499;51.482;4.264;2023-12-07T01:41:28;101858.19;;;1.60
49593;BMP280;35499;51.482;4.264;2023-12-07T01:43:53;101864.00;;;1.57
49593;BMP280;35499;51.482;4.264;2023-12-07T01:46:19;101867.34;;;1.56
49593;BMP280;35499;51.482;4.264;2023-12-07T01:48:44;101864.88;;;1.58
49593;BMP280;35499;51.482;4.264;2023-12-07T01:51:14;101857.34;;;1.59
49593;BMP280;35499;51.482;4.264;2023-12-07T01:53:39;101856.50;;;1.60
49593;BMP280;35499;51.482;4.264;2023-12-07T01:56:05;101848.19;;;1.62
49593;BMP280;35499;51.482;4.264;2023-12-07T01:58:32;101851.63;;;1.64
49593;BMP280;35499;51.482;4.264;2023-12-07T02:00:57;101850.03;;;1.66
49593;BMP280;35499;51.482;4.264;2023-12-07T02:03:23;101856.88;;;1.69
49593;BMP280;35499;51.482;4.264;2023-12-07T02:05:49;101857.84;;;1.72
49593;BMP280;35499;51.482;4.264;2023-12-07T02:08:15;101855.41;;;1.75
49593;BMP280;35499;51.482;4.264;2023-12-07T02:10:40;101852.94;;;1.77
49593;BMP280;35499;51.482;4.264;2023-12-07T02:13:06;101855.53;;;1.78
49593;BMP280;35499;51.482;4.264;2023-12-07T02:15:32;101850.56;;;1.81
49593;BMP280;35499;51.482;4.264;2023-12-07T02:18:10;101855.63;;;1.81
49593;BMP280;35499;51.482;4.264;2023-12-07T02:20:46;101861.56;;;1.81
49593;BMP280;35499;51.482;4.264;2023-12-07T02:23:16;101856.59;;;1.84
49593;BMP280;35499;51.482;4.264;2023-12-07T02:25:51;101860.91;;;1.87
49593;BMP280;35499;51.482;4.264;2023-12-07T02:28:17;101861.84;;;1.89
49593;BMP280;35499;51.482;4.264;2023-12-07T02:30:43;101855.22;;;1.92
49593;BMP280;35499;51.482;4.264;2023-12-07T02:33:08;101857.81;;;1.94
49593;BMP280;35499;51.482;4.264;2023-12-07T02:35:35;101857.03;;;1.96
49593;BMP280;35499;51.482;4.264;2023-12-07T02:38:01;101860.53;;;1.99
49593;BMP280;35499;51.482;4.264;2023-12-07T02:40:27;101875.84;;;2.02
49593;BMP280;35499;51.482;4.264;2023-12-07T02:42:54;101859.88;;;2.05
49593;BMP280;35499;51.482;4.264;2023-12-07T02:45:20;101860.00;;;2.08
49593;BMP280;35499;51.482;4.264;2023-12-07T02:47:45;101861.78;;;2.10
49593;BMP280;35499;51.482;4.264;2023-12-07T02:50:12;101846.69;;;2.13
49593;BMP280;35499;51.482;4.264;2023-12-07T02:52:37;101853.59;;;2.17
49593;BMP280;35499;51.482;4.264;2023-12-07T02:55:03;101859.63;;;2.20
49593;BMP280;35499;51.482;4.264;2023-12-07T02:57:29;101853.81;;;2.23
49593;BMP280;35499;51.482;4.264;2023-12-07T02:59:55;101858.97;;;2.26
49593;BMP280;35499;51.482;4.264;2023-12-07T03:02:20;101856.59;;;2.30
49593;BMP280;35499;51.482;4.264;2023-12-07T03:04:46;101855.91;;;2.34
49593;BMP280;35499;51.482;4.264;2023-12-07T03:07:11;101860.25;;;2.38
49593;BMP280;35499;51.482;4.264;2023-12-07T03:09:36;101867.09;;;2.40
49593;BMP280;35499;51.482;4.264;2023-12-07T03:12:01;101849.47;;;2.43
49593;BMP280;35499;51.482;4.264;2023-12-07T03:14:27;101859.75;;;2.48
49593;BMP280;35499;51.482;4.264;2023-12-07T03:16:52;101849.69;;;2.50
49593;BMP280;35499;51.482;4.264;2023-12-07T03:19:17;101868.44;;;2.54
49593;BMP280;35499;51.482;4.264;2023-12-07T03:21:43;101860.13;;;2.58
49593;BMP280;35499;51.482;4.264;2023-12-07T03:24:09;101865.22;;;2.59
49593;BMP280;35499;51.482;4.264;2023-12-07T03:26:34;101862.72;;;2.61
49593;BMP280;35499;51.482;4.264;2023-12-07T03:29:00;101867.94;;;2.64
49593;BMP280;35499;51.482;4.264;2023-12-07T03:31:26;101857.81;;;2.65
49593;BMP280;35499;51.482;4.264;2023-12-07T03:33:51;101863.75;;;2.66
49593;BMP280;35499;51.482;4.264;2023-12-07T03:36:16;101852.81;;;2.67
49593;BMP280;35499;51.482;4.264;2023-12-07T03:38:42;101856.28;;;2.70
49593;BMP280;35499;51.482;4.264;2023-12-07T03:41:07;101858.00;;;2.71
49593;BMP280;35499;51.482;4.264;2023-12-07T03:43:33;101850.47;;;2.72
49593;BMP280;35499;51.482;4.264;2023-12-07T03:45:58;101855.63;;;2.75
49593;BMP280;35499;51.482;4.264;2023-12-07T03:48:23;101842.13;;;2.76
49593;BMP280;35499;51.482;4.264;2023-12-07T03:50:49;101834.59;;;2.78
49593;BMP280;35499;51.482;4.264;2023-12-07T03:53:14;101838.88;;;2.80
49593;BMP280;35499;51.482;4.264;2023-12-07T03:55:39;101845.75;;;2.83
49593;BMP280;35499;51.482;4.264;2023-12-07T03:58:05;101844.97;;;2.85
49593;BMP280;35499;51.482;4.264;2023-12-07T04:00:32;101851.75;;;2.86
49593;BMP280;35499;51.482;4.264;2023-12-07T04:02:57;101848.41;;;2.87
49593;BMP280;35499;51.482;4.264;2023-12-07T04:05:22;101837.47;;;2.88
49593;BMP280;35499;51.482;4.264;2023-12-07T04:07:48;101845.97;;;2.90
49593;BMP280;35499;51.482;4.264;2023-12-07T04:10:13;101848.56;;;2.91
49593;BMP280;35499;51.482;4.264;2023-12-07T04:12:38;101846.09;;;2.93
49593;BMP280;35499;51.482;4.264;2023-12-07T04:15:04;101852.03;;;2.93
49593;BMP280;35499;51.482;4.264;2023-12-07T04:17:29;101842.75;;;2.95
49593;BMP280;35499;51.482;4.264;2023-12-07T04:19:55;101837.75;;;2.97
49593;BMP280;35499;51.482;4.264;2023-12-07T04:22:20;101835.28;;;3.00
49593;BMP280;35499;51.482;4.264;2023-12-07T04:24:45;101826.06;;;3.02
49593;BMP280;35499;51.482;4.264;2023-12-07T04:27:10;101817.66;;;3.04
49593;BMP280;35499;51.482;4.264;2023-12-07T04:29:36;101814.31;;;3.05
49593;BMP280;35499;51.482;4.264;2023-12-07T04:32:01;101818.59;;;3.06
49593;BMP280;35499;51.482;4.264;2023-12-07T04:34:27;101816.06;;;3.06
49593;BMP280;35499;51.482;4.264;2023-12-07T04:36:52;101810.97;;;3.06
49593;BMP280;35499;51.482;4.264;2023-12-07T04:39:18;101810.97;;;3.06
49593;BMP280;35499;51.482;4.264;2023-12-07T04:41:43;101816.88;;;3.05
49593;BMP280;35499;51.482;4.264;2023-12-07T04:44:08;101814.31;;;3.03
49593;BMP280;35499;51.482;4.264;2023-12-07T04:46:34;101811.78;;;3.05
49593;BMP280;35499;51.482;4.264;2023-12-07T04:49:00;101815.25;;;3.07
49593;BMP280;35499;51.482;4.264;2023-12-07T04:51:26;101810.16;;;3.07
49593;BMP280;35499;51.482;4.264;2023-12-07T04:53:51;101810.16;;;3.07
49593;BMP280;35499;51.482;4.264;2023-12-07T04:56:16;101808.50;;;3.07
49593;BMP280;35499;51.482;4.264;2023-12-07T04:58:41;101800.06;;;3.08
49593;BMP280;35499;51.482;4.264;2023-12-07T05:01:07;101807.69;;;3.08
49593;BMP280;35499;51.482;4.264;2023-12-07T05:03:32;101790.72;;;3.07
49593;BMP280;35499;51.482;4.264;2023-12-07T05:05:57;101797.53;;;3.08
49593;BMP280;35499;51.482;4.264;2023-12-07T05:08:23;101792.47;;;3.08
49593;BMP280;35499;51.482;4.264;2023-12-07T05:10:48;101788.22;;;3.09
49593;BMP280;35499;51.482;4.264;2023-12-07T05:13:13;101790.75;;;3.09
49593;BMP280;35499;51.482;4.264;2023-12-07T05:15:38;101778.03;;;3.07
49593;BMP280;35499;51.482;4.264;2023-12-07T05:18:04;101789.00;;;3.06
49593;BMP280;35499;51.482;4.264;2023-12-07T05:20:29;101790.72;;;3.07
49593;BMP280;35499;51.482;4.264;2023-12-07T05:22:55;101790.72;;;3.07
49593;BMP280;35499;51.482;4.264;2023-12-07T05:25:21;101780.59;;;3.07
49593;BMP280;35499;51.482;4.264;2023-12-07T05:27:46;101785.66;;;3.07
49593;BMP280;35499;51.482;4.264;2023-12-07T05:30:11;101783.13;;;3.07
49593;BMP280;35499;51.482;4.264;2023-12-07T05:32:38;101785.66;;;3.07
49593;BMP280;35499;51.482;4.264;2023-12-07T05:35:03;101780.59;;;3.07
49593;BMP280;35499;51.482;4.264;2023-12-07T05:37:29;101784.78;;;3.07
49593;BMP280;35499;51.482;4.264;2023-12-07T05:39:54;101777.25;;;3.08
49593;BMP280;35499;51.482;4.264;2023-12-07T05:42:19;101772.16;;;3.08
49593;BMP280;35499;51.482;4.264;2023-12-07T05:44:44;101772.16;;;3.08
49593;BMP280;35499;51.482;4.264;2023-12-07T05:47:10;101771.31;;;3.08
49593;BMP280;35499;51.482;4.264;2023-12-07T05:49:35;101764.50;;;3.07
49593;BMP280;35499;51.482;4.264;2023-12-07T05:52:01;101756.03;;;3.06
49593;BMP280;35499;51.482;4.264;2023-12-07T05:54:27;101756.84;;;3.05
49593;BMP280;35499;51.482;4.264;2023-12-07T05:56:52;101766.09;;;3.03
49593;BMP280;35499;51.482;4.264;2023-12-07T05:59:17;101770.31;;;3.04
49593;BMP280;35499;51.482;4.264;2023-12-07T06:01:42;101781.31;;;3.03
49593;BMP280;35499;51.482;4.264;2023-12-07T06:04:08;101776.25;;;3.03
49593;BMP280;35499;51.482;4.264;2023-12-07T06:06:34;101779.63;;;3.04
49593;BMP280;35499;51.482;4.264;2023-12-07T06:09:00;101767.78;;;3.03
49593;BMP280;35499;51.482;4.264;2023-12-07T06:11:25;101766.94;;;3.04
49593;BMP280;35499;51.482;4.264;2023-12-07T06:13:50;101761.91;;;3.05
49593;BMP280;35499;51.482;4.264;2023-12-07T06:16:15;101758.56;;;3.06
49593;BMP280;35499;51.482;4.264;2023-12-07T06:18:42;101758.56;;;3.06
49593;BMP280;35499;51.482;4.264;2023-12-07T06:21:08;101760.28;;;3.07
49593;BMP280;35499;51.482;4.264;2023-12-07T06:23:33;101755.22;;;3.07
49593;BMP280;35499;51.482;4.264;2023-12-07T06:25:59;101756.09;;;3.08
49593;BMP280;35499;51.482;4.264;2023-12-07T06:28:24;101758.63;;;3.08
49593;BMP280;35499;51.482;4.264;2023-12-07T06:30:49;101756.03;;;3.06
49593;BMP280;35499;51.482;4.264;2023-12-07T06:33:15;101761.03;;;3.05
49593;BMP280;35499;51.482;4.264;2023-12-07T06:35:40;101756.75;;;3.03
49593;BMP280;35499;51.482;4.264;2023-12-07T06:38:05;101746.59;;;3.03
49593;BMP280;35499;51.482;4.264;2023-12-07T06:40:31;101748.34;;;3.03
49593;BMP280;35499;51.482;4.264;2023-12-07T06:42:56;101745.69;;;3.01
49593;BMP280;35499;51.482;4.264;2023-12-07T06:45:22;101755.91;;;3.02
49593;BMP280;35499;51.482;4.264;2023-12-07T06:47:47;101749.09;;;3.01
49593;BMP280;35499;51.482;4.264;2023-12-07T06:50:12;101738.94;;;3.01
49593;BMP280;35499;51.482;4.264;2023-12-07T06:52:38;101751.69;;;3.03
49593;BMP280;35499;51.482;4.264;2023-12-07T06:55:05;101757.63;;;3.03
49593;BMP280;35499;51.482;4.264;2023-12-07T06:57:30;101756.84;;;3.05
49593;BMP280;35499;51.482;4.264;2023-12-07T06:59:55;101751.75;;;3.05
49593;BMP280;35499;51.482;4.264;2023-12-07T07:02:21;101754.34;;;3.07
49593;BMP280;35499;51.482;4.264;2023-12-07T07:04:47;101751.88;;;3.08
49593;BMP280;35499;51.482;4.264;2023-12-07T07:07:14;101761.16;;;3.08
49593;BMP280;35499;51.482;4.264;2023-12-07T07:09:39;101763.72;;;3.09
49593;BMP280;35499;51.482;4.264;2023-12-07T07:12:05;101756.22;;;3.12
49593;BMP280;35499;51.482;4.264;2023-12-07T07:14:30;101751.22;;;3.15
49593;BMP280;35499;51.482;4.264;2023-12-07T07:16:55;101765.63;;;3.16
49593;BMP280;35499;51.482;4.264;2023-12-07T07:19:21;101771.50;;;3.15
49593;BMP280;35499;51.482;4.264;2023-12-07T07:21:46;101767.34;;;3.17
49593;BMP280;35499;51.482;4.264;2023-12-07T07:24:11;101768.25;;;3.19
49593;BMP280;35499;51.482;4.264;2023-12-07T07:26:37;101763.22;;;3.21
49593;BMP280;35499;51.482;4.264;2023-12-07T07:29:02;101755.66;;;3.22
49593;BMP280;35499;51.482;4.264;2023-12-07T07:31:28;101759.00;;;3.21
49593;BMP280;35499;51.482;4.264;2023-12-07T07:33:55;101767.53;;;3.23
49593;BMP280;35499;51.482;4.264;2023-12-07T07:36:20;101756.53;;;3.24
49593;BMP280;35499;51.482;4.264;2023-12-07T07:38:45;101760.78;;;3.23
49593;BMP280;35499;51.482;4.264;2023-12-07T07:41:10;101759.09;;;3.24
49593;BMP280;35499;51.482;4.264;2023-12-07T07:43:37;101763.31;;;3.23
49593;BMP280;35499;51.482;4.264;2023-12-07T07:46:06;101758.13;;;3.21
49593;BMP280;35499;51.482;4.264;2023-12-07T07:48:31;101747.13;;;3.20
49593;BMP280;35499;51.482;4.264;2023-12-07T07:50:57;101746.31;;;3.21
49593;BMP280;35499;51.482;4.264;2023-12-07T07:53:23;101753.13;;;3.22
49593;BMP280;35499;51.482;4.264;2023-12-07T07:55:48;101742.97;;;3.22
49593;BMP280;35499;51.482;4.264;2023-12-07T07:58:14;101755.66;;;3.22
49593;BMP280;35499;51.482;4.264;2023-12-07T08:00:39;101754.78;;;3.21
49593;BMP280;35499;51.482;4.264;2023-12-07T08:03:04;101761.63;;;3.24
49593;BMP280;35499;51.482;4.264;2023-12-07T08:05:30;101751.44;;;3.22
49593;BMP280;35499;51.482;4.264;2023-12-07T08:07:55;101759.94;;;3.23
49593;BMP280;35499;51.482;4.264;2023-12-07T08:10:21;101762.47;;;3.23
49593;BMP280;35499;51.482;4.264;2023-12-07T08:12:46;101756.53;;;3.24
49593;BMP280;35499;51.482;4.264;2023-12-07T08:15:11;101746.50;;;3.27
49593;BMP280;35499;51.482;4.264;2023-12-07T08:17:40;101738.88;;;3.27
49593;BMP280;35499;51.482;4.264;2023-12-07T08:20:08;101737.22;;;3.29
49593;BMP280;35499;51.482;4.264;2023-12-07T08:22:35;101737.34;;;3.32
49593;BMP280;35499;51.482;4.264;2023-12-07T08:25:02;101746.75;;;3.36
49593;BMP280;35499;51.482;4.264;2023-12-07T08:27:27;101738.41;;;3.39
49593;BMP280;35499;51.482;4.264;2023-12-07T08:29:52;101733.59;;;3.48
49593;BMP280;35499;51.482;4.264;2023-12-07T08:32:17;101737.19;;;3.56
49593;BMP280;35499;51.482;4.264;2023-12-07T08:34:44;101739.22;;;3.67
49593;BMP280;35499;51.482;4.264;2023-12-07T08:37:10;101729.34;;;3.77
49593;BMP280;35499;51.482;4.264;2023-12-07T08:39:35;101744.88;;;3.88
49593;BMP280;35499;51.482;4.264;2023-12-07T08:42:00;101740.78;;;3.94
49593;BMP280;35499;51.482;4.264;2023-12-07T08:44:26;101743.59;;;4.04
49593;BMP280;35499;51.482;4.264;2023-12-07T08:46:51;101733.59;;;4.10
49593;BMP280;35499;51.482;4.264;2023-12-07T08:49:17;101743.00;;;4.12
49593;BMP280;35499;51.482;4.264;2023-12-07T08:51:42;101736.19;;;4.11
49593;BMP280;35499;51.482;4.264;2023-12-07T08:54:07;101741.25;;;4.11
49593;BMP280;35499;51.482;4.264;2023-12-07T08:56:32;101743.81;;;4.11
49593;BMP280;35499;51.482;4.264;2023-12-07T08:58:58;101754.84;;;4.13
49593;BMP280;35499;51.482;4.264;2023-12-07T09:01:23;101756.69;;;4.17
49593;BMP280;35499;51.482;4.264;2023-12-07T09:03:48;101750.09;;;4.25
49593;BMP280;35499;51.482;4.264;2023-12-07T09:06:13;101736.00;;;4.37
49593;BMP280;35499;51.482;4.264;2023-12-07T09:08:39;101747.38;;;4.51
49593;BMP280;35499;51.482;4.264;2023-12-07T09:11:04;101744.25;;;4.62
49593;BMP280;35499;51.482;4.264;2023-12-07T09:13:29;101739.38;;;4.71
49593;BMP280;35499;51.482;4.264;2023-12-07T09:15:54;101745.53;;;4.80
49593;BMP280;35499;51.482;4.264;2023-12-07T09:18:20;101733.09;;;4.93
49593;BMP280;35499;51.482;4.264;2023-12-07T09:20:45;101731.66;;;5.04
49593;BMP280;35499;51.482;4.264;2023-12-07T09:23:14;101733.56;;;5.14
49593;BMP280;35499;51.482;4.264;2023-12-07T09:25:40;101733.69;;;5.19
49593;BMP280;35499;51.482;4.264;2023-12-07T09:28:06;101734.66;;;5.24
49593;BMP280;35499;51.482;4.264;2023-12-07T09:30:31;101731.47;;;5.33
49593;BMP280;35499;51.482;4.264;2023-12-07T09:32:59;101737.31;;;5.30
49593;BMP280;35499;51.482;4.264;2023-12-07T09:35:24;101732.88;;;5.20
49593;BMP280;35499;51.482;4.264;2023-12-07T09:37:50;101726.78;;;5.13
49593;BMP280;35499;51.482;4.264;2023-12-07T09:40:19;101733.38;;;5.05
49593;BMP280;35499;51.482;4.264;2023-12-07T09:42:46;101726.53;;;5.02
49593;BMP280;35499;51.482;4.264;2023-12-07T09:45:12;101729.09;;;5.02
49593;BMP280;35499;51.482;4.264;2023-12-07T09:47:39;101716.13;;;5.31
49593;BMP280;35499;51.482;4.264;2023-12-07T09:50:06;101717.63;;;5.62
49593;BMP280;35499;51.482;4.264;2023-12-07T09:52:32;101726.53;;;5.83
49593;BMP280;35499;51.482;4.264;2023-12-07T09:54:57;101730.34;;;6.04
49593;BMP280;35499;51.482;4.264;2023-12-07T09:57:23;101725.69;;;6.27
49593;BMP280;35499;51.482;4.264;2023-12-07T09:59:48;101722.75;;;6.58
49593;BMP280;35499;51.482;4.264;2023-12-07T10:04:32;101734.91;;;6.73
49593;BMP280;35499;51.482;4.264;2023-12-07T10:06:58;101746.00;;;6.72
49593;BMP280;35499;51.482;4.264;2023-12-07T10:09:23;101729.41;;;7.03
49593;BMP280;35499;51.482;4.264;2023-12-07T10:11:49;101731.47;;;7.26
49593;BMP280;35499;51.482;4.264;2023-12-07T10:14:14;101727.31;;;7.35
49593;BMP280;35499;51.482;4.264;2023-12-07T10:16:53;101736.06;;;7.52
49593;BMP280;35499;51.482;4.264;2023-12-07T10:19:22;101711.19;;;8.13
49593;BMP280;35499;51.482;4.264;2023-12-07T10:21:51;101720.16;;;8.68
49593;BMP280;35499;51.482;4.264;2023-12-07T10:24:21;101714.44;;;9.07
49593;BMP280;35499;51.482;4.264;2023-12-07T10:26:48;101712.09;;;9.45
49593;BMP280;35499;51.482;4.264;2023-12-07T10:29:14;101724.97;;;9.66
49593;BMP280;35499;51.482;4.264;2023-12-07T10:31:39;101710.53;;;9.79
49593;BMP280;35499;51.482;4.264;2023-12-07T10:34:05;101709.59;;;9.66
49593;BMP280;35499;51.482;4.264;2023-12-07T10:36:31;101708.69;;;9.48
49593;BMP280;35499;51.482;4.264;2023-12-07T10:38:57;101701.03;;;9.60
49593;BMP280;35499;51.482;4.264;2023-12-07T10:41:24;101692.56;;;9.79
49593;BMP280;35499;51.482;4.264;2023-12-07T10:43:56;101687.44;;;9.77
49593;BMP280;35499;51.482;4.264;2023-12-07T10:46:24;101688.25;;;9.70
49593;BMP280;35499;51.482;4.264;2023-12-07T10:48:59;101685.75;;;9.92
49593;BMP280;35499;51.482;4.264;2023-12-07T10:51:31;101689.19;;;10.22
49593;BMP280;35499;51.482;4.264;2023-12-07T10:54:02;101679.78;;;10.31
49593;BMP280;35499;51.482;4.264;2023-12-07T10:56:32;101666.09;;;10.47
49593;BMP280;35499;51.482;4.264;2023-12-07T10:58:58;101659.22;;;10.78
49593;BMP280;35499;51.482;4.264;2023-12-07T11:01:24;101657.41;;;11.15
49593;BMP280;35499;51.482;4.264;2023-12-07T11:03:52;101658.94;;;11.57
49593;BMP280;35499;51.482;4.264;2023-12-07T11:06:18;101656.97;;;11.99
49593;BMP280;35499;51.482;4.264;2023-12-07T11:08:55;101662.88;;;12.13
49593;BMP280;35499;51.482;4.264;2023-12-07T11:14:09;101675.34;;;11.31
49593;BMP280;35499;51.482;4.264;2023-12-07T11:16:42;101668.59;;;10.93
49593;BMP280;35499;51.482;4.264;2023-12-07T11:21:56;101676.34;;;9.97
49593;BMP280;35499;51.482;4.264;2023-12-07T11:24:23;101684.75;;;9.57
49593;BMP280;35499;51.482;4.264;2023-12-07T11:26:51;101668.38;;;9.15
49593;BMP280;35499;51.482;4.264;2023-12-07T11:29:19;101669.03;;;8.82
49593;BMP280;35499;51.482;4.264;2023-12-07T11:31:45;101645.88;;;8.59
49593;BMP280;35499;51.482;4.264;2023-12-07T11:34:10;101649.09;;;8.32
49593;BMP280;35499;51.482;4.264;2023-12-07T11:36:39;101646.25;;;8.03
49593;BMP280;35499;51.482;4.264;2023-12-07T11:41:35;101637.31;;;7.63
49593;BMP280;35499;51.482;4.264;2023-12-07T11:44:00;101636.44;;;7.56
49593;BMP280;35499;51.482;4.264;2023-12-07T11:46:25;101618.50;;;7.52
49593;BMP280;35499;51.482;4.264;2023-12-07T11:48:51;101612.41;;;7.41
49593;BMP280;35499;51.482;4.264;2023-12-07T11:51:17;101597.94;;;7.42
49593;BMP280;35499;51.482;4.264;2023-12-07T11:53:43;101592.84;;;7.42
49593;BMP280;35499;51.482;4.264;2023-12-07T11:56:09;101580.97;;;7.47
49593;BMP280;35499;51.482;4.264;2023-12-07T11:58:36;101580.25;;;7.61
49593;BMP280;35499;51.482;4.264;2023-12-07T12:01:02;101571.75;;;7.68
49593;BMP280;35499;51.482;4.264;2023-12-07T12:03:28;101564.03;;;7.59
49593;BMP280;35499;51.482;4.264;2023-12-07T12:05:55;101551.94;;;7.43
49593;BMP280;35499;51.482;4.264;2023-12-07T12:08:21;101540.72;;;7.28
49593;BMP280;35499;51.482;4.264;2023-12-07T12:10:47;101545.63;;;7.09
49593;BMP280;35499;51.482;4.264;2023-12-07T12:13:15;101550.69;;;7.05
49593;BMP280;35499;51.482;4.264;2023-12-07T12:15:40;101541.31;;;7.04
49593;BMP280;35499;51.482;4.264;2023-12-07T12:18:07;101539.59;;;7.01
49593;BMP280;35499;51.482;4.264;2023-12-07T12:20:32;101527.63;;;6.96
49593;BMP280;35499;51.482;4.264;2023-12-07T12:22:58;101513.88;;;6.85
49593;BMP280;35499;51.482;4.264;2023-12-07T12:25:26;101512.84;;;6.70
49593;BMP280;35499;51.482;4.264;2023-12-07T12:27:54;101512.72;;;6.60
49593;BMP280;35499;51.482;4.264;2023-12-07T12:30:21;101503.28;;;6.55
49593;BMP280;35499;51.482;4.264;2023-12-07T12:32:48;101509.16;;;6.48
49593;BMP280;35499;51.482;4.264;2023-12-07T12:35:13;101502.31;;;6.45
49593;BMP280;35499;51.482;4.264;2023-12-07T12:37:41;101501.47;;;6.45
49593;BMP280;35499;51.482;4.264;2023-12-07T12:40:08;101484.34;;;6.38
49593;BMP280;35499;51.482;4.264;2023-12-07T12:42:34;101469.88;;;6.36
49593;BMP280;35499;51.482;4.264;2023-12-07T12:44:59;101470.69;;;6.33
49593;BMP280;35499;51.482;4.264;2023-12-07T12:47:25;101465.59;;;6.32
49593;BMP280;35499;51.482;4.264;2023-12-07T12:49:50;101459.59;;;6.30
49593;BMP280;35499;51.482;4.264;2023-12-07T12:52:16;101443.44;;;6.29
49593;BMP280;35499;51.482;4.264;2023-12-07T12:54:45;101452.78;;;6.29
49593;BMP280;35499;51.482;4.264;2023-12-07T12:57:10;101446.03;;;6.34
49593;BMP280;35499;51.482;4.264;2023-12-07T12:59:36;101461.41;;;6.37
49593;BMP280;35499;51.482;4.264;2023-12-07T13:02:04;101455.47;;;6.39
49593;BMP280;35499;51.482;4.264;2023-12-07T13:04:30;101463.94;;;6.38
49593;BMP280;35499;51.482;4.264;2023-12-07T13:06:56;101474.22;;;6.44
49593;BMP280;35499;51.482;4.264;2023-12-07T13:09:21;101468.31;;;6.48
49593;BMP280;35499;51.482;4.264;2023-12-07T13:11:46;101459.91;;;6.52
49593;BMP280;35499;51.482;4.264;2023-12-07T13:14:12;101460.75;;;6.54
49593;BMP280;35499;51.482;4.264;2023-12-07T13:16:37;101453.94;;;6.54
49593;BMP280;35499;51.482;4.264;2023-12-07T13:19:03;101449.69;;;6.52
49593;BMP280;35499;51.482;4.264;2023-12-07T13:21:28;101439.44;;;6.49
49593;BMP280;35499;51.482;4.264;2023-12-07T13:23:53;101431.72;;;6.44
49593;BMP280;35499;51.482;4.264;2023-12-07T13:26:19;101435.94;;;6.41
49593;BMP280;35499;51.482;4.264;2023-12-07T13:28:45;101433.34;;;6.37
49593;BMP280;35499;51.482;4.264;2023-12-07T13:31:10;101432.47;;;6.35
49593;BMP280;35499;51.482;4.264;2023-12-07T13:33:36;101426.47;;;6.33
49593;BMP280;35499;51.482;4.264;2023-12-07T13:36:01;101423.03;;;6.29
49593;BMP280;35499;51.482;4.264;2023-12-07T13:38:27;101412.75;;;6.24
49593;BMP280;35499;51.482;4.264;2023-12-07T13:40:55;101415.28;;;6.21
49593;BMP280;35499;51.482;4.264;2023-12-07T13:43:21;101399.09;;;6.19
49593;BMP280;35499;51.482;4.264;2023-12-07T13:45:49;101389.72;;;6.15
49593;BMP280;35499;51.482;4.264;2023-12-07T13:48:14;101381.19;;;6.13
49593;BMP280;35499;51.482;4.264;2023-12-07T13:50:40;101375.22;;;6.11
49593;BMP280;35499;51.482;4.264;2023-12-07T13:53:06;101361.59;;;6.07
49593;BMP280;35499;51.482;4.264;2023-12-07T13:55:38;101359.84;;;6.05
49593;BMP280;35499;51.482;4.264;2023-12-07T13:58:04;101356.41;;;6.00
49593;BMP280;35499;51.482;4.264;2023-12-07T14:00:32;101345.28;;;5.95
49593;BMP280;35499;51.482;4.264;2023-12-07T14:02:57;101333.34;;;5.91
49593;BMP280;35499;51.482;4.264;2023-12-07T14:05:22;101331.59;;;5.89
49593;BMP280;35499;51.482;4.264;2023-12-07T14:07:48;101331.59;;;5.86
49593;BMP280;35499;51.482;4.264;2023-12-07T14:10:13;101334.94;;;5.84
49593;BMP280;35499;51.482;4.264;2023-12-07T14:12:38;101334.91;;;5.81